ROMMA est une association bénévole à but non lucratif. Votre soutien est indispensable : ADHERER à ROMMA ou FAIRE un DON

Briord - (01, Ain)

Bugey (281 m)   Longitude: 05° 29' 13" E   Latitude: 45° 46' 37" N Station partenaire n°15
 

Détail journalier du     <<     >>

Température Precipitation Humidité Pression Vent Dir Rafale Dir. rafale Ensol.
Heure (°C) (mm) (%) (hPa) (km/h) (km/h) (min)
01:00 -0.209010051ESE10ESE0
02:00 -0.6091100502SE0
03:00 -0.509110051ESE11ESE0
04:00 -0.9091100505ESE0
05:00 -1.309110041SE11SE0
06:00 -1.9092100406SE0
07:00 -2.2092100405ESE0
08:00 -1.9093100405SE0
09:00 0.1091100400---25
10:00 4.2088100400---60
11:00 6.507910041O10O60
12:00 8.107610042ONO11ONO55
13:00 9.907310042NO13NNO50
14:00 11.305510033SSO16S60
15:00 12.905310035SSE21SSE60
16:00 12.805110025SE19SSE60
17:00 13.604410022SSE13SSE25
18:00 13.804510011ENE10E40
19:00 13.904910012SE13E60
20:00 10.705410023ESE13E15
21:00 9.406210025E16E0
22:00 8.506710032E16E0
23:00 6.70781003010S0
minuit 6.2085100402SO0

Graphique du 05-04-2019

 

Serveur OMMA